Time;durP1;ratioP1;P1;durP2;ratioP2;P2;SDS_P1;SDS_P2;PMS_P1;PMS_P2;Temp;Humidity;BMP_temperature;BMP_pressure;BME280_temperature;BME280_humidity;BME280_pressure;Samples;Min_cycle;Max_cycle;Signal;HPM_P1;HPM_P2
2023/06/22 00:01:17;;;;;;;1.52;1.17;;;25.70;50.80;;;;;;4945008;28;20137;-77
2023/06/22 00:03:43;;;;;;;2.28;1.55;;;25.70;50.80;;;;;;4946252;28;20134;-76
2023/06/22 00:06:08;;;;;;;1.27;1.17;;;25.70;50.90;;;;;;4954713;28;20119;-77
2023/06/22 00:08:34;;;;;;;1.30;1.20;;;25.60;50.80;;;;;;4959591;28;20069;-77
2023/06/22 00:11:00;;;;;;;2.17;1.63;;;25.60;50.90;;;;;;4961722;28;20571;-77
2023/06/22 00:13:26;;;;;;;1.42;1.33;;;25.60;50.90;;;;;;4946272;29;20506;-77
2023/06/22 00:15:51;;;;;;;2.33;1.60;;;25.50;50.90;;;;;;4943621;28;20482;-76
2023/06/22 00:18:17;;;;;;;1.48;1.30;;;25.50;50.90;;;;;;4944582;28;20622;-77
2023/06/22 00:20:45;;;;;;;1.55;1.20;;;25.50;50.90;;;;;;4959626;28;20024;-76
2023/06/22 00:23:11;;;;;;;1.70;1.23;;;25.50;50.90;;;;;;4951575;28;20095;-77
2023/06/22 00:25:39;;;;;;;1.45;1.25;;;25.40;50.90;;;;;;4962146;28;20364;-76
2023/06/22 00:28:05;;;;;;;2.28;1.42;;;25.40;51.00;;;;;;4950792;28;20419;-77
2023/06/22 00:30:34;;;;;;;1.95;1.33;;;25.40;51.00;;;;;;4944005;28;20035;-76
2023/06/22 00:33:00;;;;;;;1.50;1.40;;;25.40;51.10;;;;;;4953642;28;20039;-77
2023/06/22 00:35:28;;;;;;;3.35;1.60;;;25.40;51.10;;;;;;4957987;28;20561;-77
2023/06/22 00:38:03;;;;;;;1.80;1.50;;;25.30;51.00;;;;;;4956633;28;20035;-77
2023/06/22 00:40:30;;;;;;;1.63;1.42;;;25.30;51.10;;;;;;4946934;28;20475;-77
2023/06/22 00:42:57;;;;;;;1.27;1.15;;;25.30;51.10;;;;;;4939898;29;20475;-77
2023/06/22 00:45:24;;;;;;;1.23;1.10;;;25.20;51.10;;;;;;4935886;29;20036;-77
2023/06/22 00:47:52;;;;;;;1.50;1.30;;;25.20;51.20;;;;;;4954884;28;20039;-77
2023/06/22 00:50:21;;;;;;;1.33;1.10;;;25.20;51.20;;;;;;4938298;29;20042;-77
2023/06/22 00:52:51;;;;;;;2.30;1.30;;;25.20;51.30;;;;;;4955592;28;20040;-77
2023/06/22 00:55:17;;;;;;;1.92;1.30;;;25.10;51.20;;;;;;4955671;28;20059;-77
2023/06/22 00:57:46;;;;;;;1.60;1.30;;;25.10;51.30;;;;;;4954750;29;20039;-77
2023/06/22 01:00:19;;;;;;;1.30;1.20;;;25.10;51.30;;;;;;4937822;29;20744;-77
2023/06/22 01:02:45;;;;;;;2.30;1.20;;;25.10;51.40;;;;;;4952112;28;20390;-77
2023/06/22 01:05:15;;;;;;;1.63;1.23;;;25.10;51.50;;;;;;4950062;28;20046;-77
2023/06/22 01:07:44;;;;;;;1.50;1.33;;;25.00;51.50;;;;;;4932498;28;20035;-77
2023/06/22 01:10:27;;;;;;;1.88;1.65;;;25.00;51.50;;;;;;4936740;28;20031;-77
2023/06/22 01:12:59;;;;;;;1.40;1.20;;;25.00;51.60;;;;;;4950564;28;20030;-76
2023/06/22 01:15:50;;;;;;;1.40;1.30;;;24.90;51.60;;;;;;4934369;29;20396;-76
2023/06/22 01:18:19;;;;;;;1.65;1.40;;;24.90;51.80;;;;;;4950503;28;20113;-76
2023/06/22 01:20:46;;;;;;;1.45;1.20;;;24.90;51.80;;;;;;4951334;28;20086;-77
2023/06/22 01:23:47;;;;;;;2.70;1.27;;;24.80;51.80;;;;;;4958054;28;20356;-76
2023/06/22 01:26:21;;;;;;;1.52;1.27;;;24.80;51.90;;;;;;4953260;28;20061;-77
2023/06/22 01:28:55;;;;;;;2.35;1.50;;;24.80;52.00;;;;;;4936402;29;20031;-77
2023/06/22 01:31:24;;;;;;;1.77;1.40;;;24.80;52.00;;;;;;4936870;29;20051;-77
2023/06/22 01:33:54;;;;;;;1.63;1.35;;;24.80;51.90;;;;;;4953238;28;20035;-77
2023/06/22 01:36:22;;;;;;;1.75;1.48;;;24.70;52.00;;;;;;4951279;28;20039;-77
2023/06/22 01:38:49;;;;;;;1.77;1.42;;;24.70;52.00;;;;;;4953263;28;20162;-76
2023/06/22 01:41:16;;;;;;;1.67;1.50;;;24.60;52.10;;;;;;4953463;28;20036;-76
2023/06/22 01:43:43;;;;;;;1.98;1.38;;;24.60;52.10;;;;;;4935591;29;20065;-77
2023/06/22 01:46:11;;;;;;;1.73;1.45;;;24.60;52.10;;;;;;4946867;28;20047;-76
2023/06/22 01:48:39;;;;;;;1.73;1.40;;;24.60;52.90;;;;;;4952563;28;20054;-76
2023/06/22 01:51:05;;;;;;;2.22;1.58;;;24.60;52.20;;;;;;4923549;28;20069;-76
2023/06/22 01:53:32;;;;;;;1.52;1.42;;;24.50;52.10;;;;;;4928275;28;20035;-77
2023/06/22 01:55:59;;;;;;;1.88;1.45;;;24.50;52.20;;;;;;4947709;28;20066;-76
2023/06/22 01:58:30;;;;;;;1.98;1.50;;;24.50;52.20;;;;;;4950729;28;20031;-76
2023/06/22 02:01:10;;;;;;;2.15;1.40;;;24.50;52.60;;;;;;4951856;28;20475;-77
2023/06/22 02:03:41;;;;;;;2.00;1.50;;;24.40;52.30;;;;;;4966639;28;20023;-76
2023/06/22 02:06:13;;;;;;;1.85;1.30;;;24.40;52.30;;;;;;4953505;28;20497;-76
2023/06/22 02:08:48;;;;;;;2.15;1.52;;;24.40;52.40;;;;;;4952363;28;20041;-77
2023/06/22 02:11:18;;;;;;;1.98;1.40;;;24.40;52.50;;;;;;4953585;28;20051;-76
2023/06/22 02:13:45;;;;;;;1.90;1.30;;;24.30;52.50;;;;;;4958564;28;20035;-76
2023/06/22 02:16:12;;;;;;;2.25;1.50;;;24.30;52.60;;;;;;4922850;29;20123;-76
2023/06/22 02:18:46;;;;;;;1.95;1.55;;;24.30;52.60;;;;;;4954160;28;20031;-76
2023/06/22 02:21:12;;;;;;;1.50;1.40;;;24.20;52.60;;;;;;4952430;28;20115;-76
2023/06/22 02:23:37;;;;;;;2.10;1.40;;;24.20;52.70;;;;;;4954512;28;20118;-76
2023/06/22 02:26:03;;;;;;;1.98;1.50;;;24.20;52.70;;;;;;4941120;29;20035;-77
2023/06/22 02:28:30;;;;;;;1.23;1.13;;;24.20;52.70;;;;;;4925329;29;20036;-77
2023/06/22 02:30:56;;;;;;;2.30;1.60;;;24.20;52.80;;;;;;4935220;28;20364;-76
2023/06/22 02:33:21;;;;;;;2.10;1.50;;;24.10;52.80;;;;;;4949764;28;20031;-76
2023/06/22 02:35:48;;;;;;;1.40;1.20;;;24.10;52.80;;;;;;4949631;28;20042;-76
2023/06/22 02:38:14;;;;;;;1.45;1.30;;;24.00;52.80;;;;;;4951059;28;20028;-76
2023/06/22 02:40:40;;;;;;;1.25;1.15;;;24.10;52.90;;;;;;4948221;28;20102;-76
2023/06/22 02:43:06;;;;;;;2.30;1.55;;;24.00;52.90;;;;;;4954133;28;20483;-76
2023/06/22 02:45:32;;;;;;;1.65;1.50;;;24.00;52.90;;;;;;4928838;29;20019;-76
2023/06/22 02:47:58;;;;;;;2.10;1.52;;;24.00;52.90;;;;;;4953906;28;20070;-76
2023/06/22 02:50:24;;;;;;;1.77;1.50;;;24.00;53.00;;;;;;4950654;28;20506;-76
2023/06/22 02:52:50;;;;;;;1.60;1.35;;;24.00;53.00;;;;;;4938668;28;20118;-76
2023/06/22 02:55:16;;;;;;;2.58;1.35;;;23.90;53.00;;;;;;4928140;28;20521;-76
2023/06/22 02:57:47;;;;;;;2.60;1.50;;;23.90;53.00;;;;;;4937482;29;20066;-76
2023/06/22 03:00:17;;;;;;;1.50;1.33;;;23.90;53.00;;;;;;4948596;28;20027;-76
2023/06/22 03:02:49;;;;;;;1.92;1.65;;;23.90;53.10;;;;;;4935210;28;20035;-76
2023/06/22 03:05:18;;;;;;;1.65;1.48;;;23.80;53.10;;;;;;4931379;29;20041;-76
2023/06/22 03:07:45;;;;;;;1.50;1.40;;;23.80;53.10;;;;;;4935344;29;20066;-76
2023/06/22 03:10:13;;;;;;;2.45;1.80;;;23.80;53.10;;;;;;4947183;28;20502;-76
2023/06/22 03:12:40;;;;;;;1.85;1.52;;;23.80;53.20;;;;;;4946512;28;20085;-76
2023/06/22 03:15:07;;;;;;;2.08;1.67;;;23.70;53.20;;;;;;4951615;28;20122;-76
2023/06/22 03:17:34;;;;;;;2.40;1.63;;;23.70;53.30;;;;;;4949427;28;20038;-76
2023/06/22 03:20:01;;;;;;;1.98;1.65;;;23.70;53.30;;;;;;4950327;28;20023;-76
2023/06/22 03:22:27;;;;;;;2.53;1.90;;;23.70;53.30;;;;;;4952452;28;20077;-76
2023/06/22 03:24:52;;;;;;;2.20;1.67;;;23.60;53.30;;;;;;4935519;28;20031;-76
2023/06/22 03:27:18;;;;;;;2.25;1.77;;;23.60;53.30;;;;;;4950123;28;20447;-76
2023/06/22 03:29:44;;;;;;;2.30;1.80;;;23.60;53.40;;;;;;4952533;28;20031;-76
2023/06/22 03:32:11;;;;;;;2.22;1.75;;;23.60;53.40;;;;;;4952101;29;20110;-76
2023/06/22 03:34:36;;;;;;;2.20;1.85;;;23.60;53.40;;;;;;4947648;28;20028;-77
2023/06/22 03:37:03;;;;;;;2.58;1.88;;;23.60;53.50;;;;;;4934911;29;20039;-76
2023/06/22 03:39:28;;;;;;;3.38;2.03;;;23.50;53.50;;;;;;4933168;28;20028;-76
2023/06/22 03:41:54;;;;;;;2.63;2.00;;;23.50;53.50;;;;;;4919189;28;20039;-76
2023/06/22 03:44:20;;;;;;;3.03;2.15;;;23.50;53.60;;;;;;4935387;29;20383;-76
2023/06/22 03:46:46;;;;;;;2.75;2.28;;;23.50;53.60;;;;;;4949167;28;20471;-76
2023/06/22 03:49:11;;;;;;;2.28;1.90;;;23.50;53.60;;;;;;4939286;28;20395;-76
2023/06/22 03:51:37;;;;;;;2.40;1.83;;;23.40;53.60;;;;;;4936336;28;20035;-76
2023/06/22 03:54:03;;;;;;;3.15;2.15;;;23.40;53.70;;;;;;4953567;28;20454;-76
2023/06/22 03:56:29;;;;;;;3.15;2.40;;;23.40;53.60;;;;;;4934665;28;20506;-76
2023/06/22 03:58:54;;;;;;;3.35;2.13;;;23.40;53.60;;;;;;4951645;28;20031;-76
2023/06/22 04:01:20;;;;;;;2.67;2.00;;;23.30;53.60;;;;;;4936224;28;20027;-76
2023/06/22 04:03:48;;;;;;;3.70;2.60;;;23.30;53.70;;;;;;4948686;28;20043;-76
2023/06/22 04:06:14;;;;;;;3.45;2.20;;;23.30;53.80;;;;;;4955276;28;20031;-77
2023/06/22 04:08:40;;;;;;;2.97;2.22;;;23.30;53.80;;;;;;4936282;29;20027;-76
2023/06/22 04:11:06;;;;;;;3.13;2.30;;;23.20;53.80;;;;;;4958093;28;20110;-76
2023/06/22 04:13:32;;;;;;;3.45;2.58;;;23.20;53.80;;;;;;4939242;29;20132;-76
2023/06/22 04:15:58;;;;;;;3.30;2.28;;;23.20;53.90;;;;;;4939865;29;20039;-76
2023/06/22 04:18:23;;;;;;;3.63;2.53;;;23.20;53.90;;;;;;4959888;28;20035;-76
2023/06/22 04:20:49;;;;;;;3.85;2.38;;;23.20;53.90;;;;;;4939935;29;20555;-76
2023/06/22 04:23:15;;;;;;;2.88;2.40;;;23.20;54.00;;;;;;4940135;29;20036;-76
2023/06/22 04:25:41;;;;;;;3.30;2.42;;;23.10;53.80;;;;;;4938999;29;20543;-76
2023/06/22 04:28:12;;;;;;;4.05;2.70;;;23.10;53.90;;;;;;4941357;28;20388;-76
2023/06/22 04:30:46;;;;;;;3.13;2.50;;;23.10;53.90;;;;;;4951808;28;20082;-76
2023/06/22 04:33:15;;;;;;;3.85;2.65;;;23.10;53.90;;;;;;4953055;28;20034;-76
2023/06/22 04:35:44;;;;;;;3.55;2.70;;;23.10;54.00;;;;;;4950127;28;20403;-76
2023/06/22 04:38:13;;;;;;;4.47;2.90;;;23.10;54.00;;;;;;4937299;28;20039;-76
2023/06/22 04:40:41;;;;;;;5.00;3.42;;;23.00;54.00;;;;;;4952988;28;20027;-76
2023/06/22 04:43:07;;;;;;;5.05;3.75;;;23.00;54.10;;;;;;4940404;28;20023;-76
2023/06/22 04:45:33;;;;;;;4.28;3.00;;;23.00;54.10;;;;;;4956296;28;20037;-78
2023/06/22 04:47:59;;;;;;;4.50;2.92;;;23.00;54.20;;;;;;4939355;28;20086;-80
2023/06/22 04:50:24;;;;;;;5.25;3.30;;;23.00;54.20;;;;;;4955827;28;20427;-78
2023/06/22 04:52:51;;;;;;;4.63;3.20;;;23.00;54.20;;;;;;4955008;29;20524;-78
2023/06/22 04:55:18;;;;;;;4.68;3.33;;;23.00;54.30;;;;;;4937930;28;20032;-78
2023/06/22 04:57:51;;;;;;;4.57;3.53;;;23.00;54.30;;;;;;4957095;28;20113;-77
2023/06/22 05:00:21;;;;;;;5.50;3.63;;;22.90;54.40;;;;;;4951095;28;20031;-77
2023/06/22 05:02:47;;;;;;;4.07;3.03;;;23.00;54.40;;;;;;4955565;28;20480;-77
2023/06/22 05:05:14;;;;;;;5.90;3.92;;;23.00;54.40;;;;;;4936585;28;20155;-78
2023/06/22 05:07:43;;;;;;;4.95;3.17;;;23.00;54.40;;;;;;4955412;28;20027;-78
2023/06/22 05:10:11;;;;;;;4.90;3.67;;;23.00;54.50;;;;;;4956243;28;20114;-78
2023/06/22 05:12:37;;;;;;;4.47;3.50;;;23.00;54.50;;;;;;4945649;29;20095;-77
2023/06/22 05:15:03;;;;;;;4.07;3.17;;;23.00;54.50;;;;;;4945155;29;20128;-76
2023/06/22 05:17:29;;;;;;;4.60;3.55;;;23.00;54.60;;;;;;4935259;28;20044;-78
2023/06/22 05:19:55;;;;;;;4.68;3.50;;;23.00;54.70;;;;;;4952454;28;20038;-78
2023/06/22 05:22:21;;;;;;;5.75;3.90;;;23.00;54.70;;;;;;4951102;28;20038;-76
2023/06/22 05:24:47;;;;;;;5.20;3.78;;;23.00;54.70;;;;;;4954118;28;20039;-76
2023/06/22 05:27:13;;;;;;;5.22;3.85;;;23.00;54.80;;;;;;4953758;28;20043;-76
2023/06/22 05:29:39;;;;;;;6.35;4.38;;;23.00;54.80;;;;;;4922031;29;20032;-76
2023/06/22 05:32:06;;;;;;;4.80;3.92;;;22.90;54.80;;;;;;4953608;28;20074;-76
2023/06/22 05:34:32;;;;;;;5.63;4.15;;;23.00;54.90;;;;;;4954117;29;20043;-77
2023/06/22 05:37:01;;;;;;;5.75;4.38;;;23.00;55.60;;;;;;4954604;29;20046;-79
2023/06/22 05:39:27;;;;;;;6.80;4.57;;;23.00;55.00;;;;;;4950903;28;20070;-76
2023/06/22 05:41:52;;;;;;;5.00;3.97;;;23.00;55.00;;;;;;4947635;29;20063;-77
2023/06/22 05:44:18;;;;;;;5.68;4.13;;;23.00;55.00;;;;;;4954363;28;20126;-85
2023/06/22 05:46:46;;;;;;;5.93;4.00;;;23.00;55.00;;;;;;4935066;29;20051;-77
2023/06/22 05:49:16;;;;;;;6.07;4.53;;;23.00;55.10;;;;;;4952347;29;20051;-83
2023/06/22 05:51:41;;;;;;;5.75;4.57;;;23.00;55.30;;;;;;4953798;28;20019;-76
2023/06/22 05:54:13;;;;;;;5.97;4.53;;;23.00;55.20;;;;;;4934464;29;20039;-84
2023/06/22 05:56:39;;;;;;;5.78;4.80;;;23.00;55.20;;;;;;4934633;28;20032;-84
2023/06/22 05:59:05;;;;;;;5.43;4.18;;;23.00;55.20;;;;;;4928099;29;20139;-83
2023/06/22 06:01:35;;;;;;;5.30;4.35;;;23.00;55.30;;;;;;4937653;28;20074;-76
2023/06/22 06:04:01;;;;;;;5.70;4.25;;;23.00;55.30;;;;;;4912629;29;20039;-76
2023/06/22 06:06:28;;;;;;;5.07;3.80;;;23.00;55.30;;;;;;4936531;29;20031;-76
2023/06/22 06:08:55;;;;;;;5.15;3.97;;;23.10;55.40;;;;;;4950116;28;20142;-76
2023/06/22 06:11:21;;;;;;;5.63;4.38;;;23.10;55.40;;;;;;4927153;29;20067;-75
2023/06/22 06:13:47;;;;;;;5.60;4.63;;;23.10;55.50;;;;;;4937162;29;20039;-75
2023/06/22 06:16:12;;;;;;;5.85;4.53;;;23.10;55.50;;;;;;4954312;29;20545;-85
2023/06/22 06:18:38;;;;;;;6.50;4.20;;;23.10;55.50;;;;;;4936101;29;20036;-84
2023/06/22 06:21:04;;;;;;;6.03;4.35;;;23.10;55.50;;;;;;4946914;28;20502;-84
2023/06/22 06:23:30;;;;;;;6.32;4.50;;;23.20;55.60;;;;;;4937191;28;20039;-76
2023/06/22 06:25:55;;;;;;;5.30;4.20;;;23.10;55.50;;;;;;4931143;29;20039;-76
2023/06/22 06:28:22;;;;;;;5.78;4.32;;;23.20;55.60;;;;;;4952645;29;20536;-75
2023/06/22 06:30:47;;;;;;;5.90;3.88;;;23.20;55.60;;;;;;4950587;28;20105;-76
2023/06/22 06:33:13;;;;;;;6.38;4.30;;;23.20;55.60;;;;;;4942199;29;20075;-74
2023/06/22 06:35:39;;;;;;;5.63;4.13;;;23.20;55.60;;;;;;4936260;28;20110;-74
2023/06/22 06:38:05;;;;;;;5.13;3.90;;;23.20;55.60;;;;;;4948900;28;20475;-74
2023/06/22 06:40:31;;;;;;;5.60;4.32;;;23.20;55.60;;;;;;4935136;29;20043;-74
2023/06/22 06:42:56;;;;;;;5.53;4.25;;;23.30;55.70;;;;;;4936525;28;20464;-74
2023/06/22 06:45:23;;;;;;;5.35;4.00;;;23.30;55.70;;;;;;4942095;29;20031;-74
2023/06/22 06:47:50;;;;;;;4.88;3.88;;;23.30;55.70;;;;;;4937069;28;20034;-74
2023/06/22 06:50:16;;;;;;;5.00;3.92;;;23.30;55.80;;;;;;4936038;29;20035;-74
2023/06/22 06:52:42;;;;;;;4.72;3.75;;;23.30;55.80;;;;;;4951957;28;20031;-75
2023/06/22 06:55:12;;;;;;;5.50;4.38;;;23.30;55.80;;;;;;4945335;28;20687;-75
2023/06/22 06:57:39;;;;;;;5.28;4.30;;;23.40;55.90;;;;;;4937105;29;20042;-75
2023/06/22 07:00:09;;;;;;;5.15;4.15;;;23.40;55.90;;;;;;4948105;28;20023;-74
2023/06/22 07:02:35;;;;;;;4.85;3.97;;;23.50;55.90;;;;;;4945444;29;20035;-73
2023/06/22 07:05:04;;;;;;;5.68;3.92;;;23.50;55.90;;;;;;4947645;28;20106;-73
2023/06/22 07:07:30;;;;;;;4.88;4.00;;;23.50;55.90;;;;;;4952894;29;20043;-74
2023/06/22 07:09:55;;;;;;;5.65;4.20;;;23.50;55.90;;;;;;4946939;29;20098;-73
2023/06/22 07:12:21;;;;;;;6.45;4.63;;;23.60;55.90;;;;;;4946885;28;20459;-74
2023/06/22 07:14:47;;;;;;;5.32;4.03;;;23.60;55.90;;;;;;4949165;29;20031;-74
2023/06/22 07:17:13;;;;;;;5.20;3.90;;;23.60;55.90;;;;;;4953645;28;20090;-73
2023/06/22 07:19:38;;;;;;;5.50;4.03;;;23.60;55.80;;;;;;4935245;29;20042;-74
2023/06/22 07:22:04;;;;;;;5.75;4.35;;;23.60;55.80;;;;;;4950773;29;20102;-74
2023/06/22 07:24:30;;;;;;;5.72;3.88;;;23.70;55.90;;;;;;4949751;29;20039;-73
2023/06/22 07:26:57;;;;;;;5.38;4.22;;;23.80;55.90;;;;;;4944692;29;20040;-74
2023/06/22 07:29:23;;;;;;;4.95;3.97;;;23.80;55.90;;;;;;4936021;29;20036;-74
2023/06/22 07:31:51;;;;;;;5.20;3.88;;;23.80;55.90;;;;;;4950465;29;20510;-74
2023/06/22 07:34:17;;;;;;;5.55;4.15;;;23.80;55.90;;;;;;4950033;28;20102;-73
2023/06/22 07:36:43;;;;;;;5.50;3.92;;;23.90;55.90;;;;;;4952334;29;20268;-73
2023/06/22 07:39:09;;;;;;;5.00;3.75;;;24.00;55.80;;;;;;4917918;29;20376;-74
2023/06/22 07:41:35;;;;;;;4.88;3.95;;;24.00;55.80;;;;;;4939436;29;20520;-73
2023/06/22 07:44:02;;;;;;;5.25;4.13;;;24.00;55.70;;;;;;4958202;28;20031;-74
2023/06/22 07:46:30;;;;;;;4.65;3.28;;;24.00;55.70;;;;;;4949137;28;20035;-73
2023/06/22 07:48:56;;;;;;;5.05;3.60;;;24.10;55.70;;;;;;4935211;29;20050;-73
2023/06/22 07:51:22;;;;;;;4.88;3.53;;;24.10;55.60;;;;;;4955460;28;20031;-74
2023/06/22 07:53:48;;;;;;;4.55;3.40;;;24.20;55.60;;;;;;4936564;29;20455;-73
2023/06/22 07:56:18;;;;;;;4.88;3.40;;;24.20;55.60;;;;;;4952927;29;20096;-73
2023/06/22 07:58:45;;;;;;;5.82;3.78;;;24.30;55.60;;;;;;4947500;29;20035;-74
2023/06/22 08:01:12;;;;;;;5.20;3.60;;;24.30;55.50;;;;;;4953047;29;20038;-73
2023/06/22 08:03:39;;;;;;;4.65;3.58;;;24.40;55.60;;;;;;4937259;29;20032;-74
2023/06/22 08:06:05;;;;;;;4.57;3.25;;;24.40;55.50;;;;;;4928683;29;20039;-73
2023/06/22 08:08:31;;;;;;;5.00;3.70;;;24.40;55.40;;;;;;4953263;29;20061;-73
2023/06/22 08:10:57;;;;;;;4.20;3.03;;;24.50;55.50;;;;;;4942811;29;20043;-74
2023/06/22 08:13:23;;;;;;;6.25;3.50;;;24.60;55.40;;;;;;4956821;29;20031;-74
2023/06/22 08:15:49;;;;;;;3.92;3.03;;;24.60;55.40;;;;;;4952887;29;20503;-73
2023/06/22 08:18:16;;;;;;;4.13;3.20;;;24.60;55.40;;;;;;4962672;28;20035;-74
2023/06/22 08:20:42;;;;;;;4.13;3.00;;;24.70;55.40;;;;;;4938589;28;20027;-73
2023/06/22 08:23:08;;;;;;;4.38;3.03;;;24.70;55.40;;;;;;4937184;29;20027;-74
2023/06/22 08:25:34;;;;;;;4.65;3.17;;;24.70;55.30;;;;;;4955422;28;20062;-76
2023/06/22 08:28:04;;;;;;;4.10;3.03;;;24.80;55.30;;;;;;4953647;28;20059;-75
2023/06/22 08:30:30;;;;;;;4.05;3.20;;;24.80;55.30;;;;;;4965536;28;20034;-76
2023/06/22 08:32:56;;;;;;;4.50;3.20;;;24.90;55.30;;;;;;4953983;28;20044;-75
2023/06/22 08:35:23;;;;;;;4.20;3.30;;;24.90;55.20;;;;;;4955399;29;20114;-76
2023/06/22 08:37:55;;;;;;;4.97;3.33;;;25.00;55.20;;;;;;4954701;29;20032;-76
2023/06/22 08:40:21;;;;;;;3.92;2.90;;;25.00;55.20;;;;;;4953205;28;20031;-75
2023/06/22 08:42:47;;;;;;;5.03;3.40;;;25.00;55.10;;;;;;4935896;29;20448;-75
2023/06/22 08:45:14;;;;;;;3.95;2.83;;;25.10;55.10;;;;;;4952211;28;20039;-75
2023/06/22 08:47:43;;;;;;;3.53;2.47;;;25.10;55.10;;;;;;4955101;28;20039;-75
2023/06/22 08:50:10;;;;;;;3.55;2.65;;;25.20;55.10;;;;;;4938932;28;20031;-75
2023/06/22 08:52:37;;;;;;;4.32;2.90;;;25.20;55.00;;;;;;4939272;29;20027;-76
2023/06/22 08:55:03;;;;;;;2.78;2.38;;;25.30;55.00;;;;;;4950185;28;20126;-76
2023/06/22 08:57:30;;;;;;;4.75;3.03;;;25.40;55.00;;;;;;4938823;29;20078;-76
2023/06/22 08:59:58;;;;;;;3.83;2.83;;;25.40;55.00;;;;;;4954952;29;20035;-75
2023/06/22 09:02:25;;;;;;;4.03;2.50;;;25.40;54.80;;;;;;4937992;29;20150;-76
2023/06/22 09:04:55;;;;;;;3.45;2.70;;;25.50;54.80;;;;;;4931323;29;20039;-75
2023/06/22 09:07:23;;;;;;;4.00;2.60;;;25.50;54.70;;;;;;4942453;28;20039;-76
2023/06/22 09:09:49;;;;;;;4.15;3.03;;;25.60;54.80;;;;;;4947392;29;20027;-76
2023/06/22 09:12:15;;;;;;;5.95;3.67;;;25.60;54.90;;;;;;4944547;28;20110;-75
2023/06/22 09:14:40;;;;;;;5.00;3.90;;;25.70;55.10;;;;;;4937993;29;20538;-75
2023/06/22 09:17:06;;;;;;;4.55;3.55;;;25.70;55.00;;;;;;4952866;29;20047;-76
2023/06/22 09:19:32;;;;;;;4.60;3.78;;;25.70;54.90;;;;;;4966596;28;20082;-75
2023/06/22 09:21:58;;;;;;;4.70;3.80;;;25.80;54.90;;;;;;4938327;29;20035;-75
2023/06/22 09:24:24;;;;;;;5.50;4.00;;;25.90;54.90;;;;;;4952229;29;20046;-76
2023/06/22 09:26:50;;;;;;;4.18;3.33;;;25.90;54.80;;;;;;4955103;29;20031;-75
2023/06/22 09:29:16;;;;;;;4.90;3.58;;;26.00;54.80;;;;;;4954482;28;20079;-76
2023/06/22 09:31:42;;;;;;;3.92;2.83;;;26.00;54.60;;;;;;4954195;28;20110;-75
2023/06/22 09:34:08;;;;;;;5.05;3.67;;;26.10;54.60;;;;;;4954017;29;20035;-75
2023/06/22 09:36:34;;;;;;;3.70;2.72;;;26.10;54.50;;;;;;4954917;28;20036;-75
2023/06/22 09:39:05;;;;;;;3.35;2.75;;;26.20;54.50;;;;;;4954839;28;20044;-75
2023/06/22 09:41:31;;;;;;;3.22;2.58;;;26.30;54.50;;;;;;4950366;28;20050;-76
2023/06/22 09:43:57;;;;;;;3.83;2.90;;;26.30;54.50;;;;;;4938536;29;20472;-76
2023/06/22 09:46:26;;;;;;;4.20;2.55;;;26.30;54.40;;;;;;4953072;28;20122;-76
2023/06/22 09:48:52;;;;;;;6.07;2.70;;;26.40;54.30;;;;;;4914741;29;20039;-75
2023/06/22 09:51:19;;;;;;;3.90;2.65;;;26.40;54.30;;;;;;4951426;29;20039;-75
2023/06/22 09:53:45;;;;;;;3.20;2.50;;;26.50;54.30;;;;;;4953731;28;20034;-76
2023/06/22 09:56:14;;;;;;;3.67;2.88;;;26.50;54.30;;;;;;4950941;29;20039;-75
2023/06/22 09:58:41;;;;;;;2.97;2.35;;;26.60;54.30;;;;;;4953414;29;20035;-75
2023/06/22 10:01:07;;;;;;;4.20;2.95;;;26.60;54.20;;;;;;4951076;29;20023;-75
2023/06/22 10:03:33;;;;;;;3.92;2.63;;;26.60;54.20;;;;;;4948920;29;20044;-75
2023/06/22 10:05:58;;;;;;;3.85;2.40;;;26.60;54.10;;;;;;4960977;28;20039;-75
2023/06/22 10:08:24;;;;;;;3.42;2.50;;;26.70;54.20;;;;;;4949026;28;20380;-75
2023/06/22 10:10:50;;;;;;;2.80;2.22;;;26.70;54.20;;;;;;4938897;28;20030;-75
2023/06/22 10:13:16;;;;;;;3.08;2.10;;;26.70;54.10;;;;;;4944949;28;20033;-75
2023/06/22 10:15:41;;;;;;;2.67;2.08;;;26.70;54.10;;;;;;4946381;28;20111;-75
2023/06/22 10:18:07;;;;;;;3.20;2.17;;;26.80;54.10;;;;;;4937336;29;20035;-76
2023/06/22 10:20:33;;;;;;;2.90;2.45;;;26.80;54.10;;;;;;4945215;28;20035;-75
2023/06/22 10:22:59;;;;;;;2.67;2.08;;;26.80;54.10;;;;;;4954686;28;20506;-75
2023/06/22 10:25:25;;;;;;;2.85;2.13;;;26.80;54.00;;;;;;4946859;29;20389;-76
2023/06/22 10:27:51;;;;;;;3.10;2.10;;;26.90;54.00;;;;;;4944464;29;20028;-76
2023/06/22 10:30:16;;;;;;;3.50;2.33;;;26.90;54.00;;;;;;4929759;29;20078;-76
2023/06/22 10:32:43;;;;;;;2.92;2.25;;;26.90;53.90;;;;;;4952727;28;20078;-75
2023/06/22 10:35:15;;;;;;;2.50;2.05;;;26.90;53.90;;;;;;4942728;29;20039;-76
2023/06/22 10:37:44;;;;;;;2.33;2.08;;;26.90;53.90;;;;;;4955410;28;20037;-75
2023/06/22 10:40:15;;;;;;;2.22;2.03;;;26.90;53.80;;;;;;4929358;29;20062;-77
2023/06/22 10:42:41;;;;;;;2.53;1.98;;;26.90;53.80;;;;;;4949532;28;20070;-75
2023/06/22 10:45:08;;;;;;;2.55;2.13;;;26.90;53.70;;;;;;4941879;29;20071;-75
2023/06/22 10:47:34;;;;;;;3.13;2.28;;;27.00;53.80;;;;;;4953798;28;20494;-76
2023/06/22 10:50:01;;;;;;;3.17;2.40;;;27.00;53.80;;;;;;4942920;29;20460;-76
2023/06/22 10:52:27;;;;;;;2.33;1.83;;;27.00;53.80;;;;;;4948273;29;20031;-76
2023/06/22 10:54:52;;;;;;;2.67;1.90;;;27.00;53.70;;;;;;4954058;28;20028;-76
2023/06/22 10:57:18;;;;;;;2.55;1.92;;;27.00;53.70;;;;;;4935333;29;20074;-76
2023/06/22 10:59:44;;;;;;;3.33;2.40;;;27.00;53.70;;;;;;4953020;29;20391;-75
2023/06/22 11:02:10;;;;;;;2.90;2.17;;;27.10;53.70;;;;;;4952343;29;20542;-76
2023/06/22 11:04:36;;;;;;;2.90;2.20;;;27.00;53.60;;;;;;4952517;29;20380;-76
2023/06/22 11:07:01;;;;;;;3.33;2.28;;;27.10;53.60;;;;;;4936491;29;20387;-76
2023/06/22 11:09:27;;;;;;;2.55;2.05;;;27.10;53.60;;;;;;4960639;28;20035;-75
2023/06/22 11:11:53;;;;;;;2.88;2.40;;;27.10;53.60;;;;;;4936172;29;20035;-76
2023/06/22 11:14:28;;;;;;;2.78;2.28;;;27.10;53.60;;;;;;4942503;29;20539;-75
2023/06/22 11:16:54;;;;;;;3.38;2.47;;;27.10;53.60;;;;;;4922327;29;20055;-76
2023/06/22 11:19:20;;;;;;;2.60;2.10;;;27.10;53.60;;;;;;4946883;29;20028;-76
2023/06/22 11:21:46;;;;;;;2.47;2.00;;;27.20;53.60;;;;;;4952360;29;20125;-76
2023/06/22 11:24:11;;;;;;;2.35;2.00;;;27.10;53.50;;;;;;4953146;28;20035;-76
2023/06/22 11:26:37;;;;;;;2.97;2.30;;;27.20;53.50;;;;;;4932841;28;20118;-76
2023/06/22 11:29:06;;;;;;;3.80;2.22;;;27.20;54.20;;;;;;4956189;29;20058;-76
2023/06/22 11:31:35;;;;;;;2.92;2.20;;;27.20;53.60;;;;;;4956214;29;20047;-75
2023/06/22 11:34:02;;;;;;;2.55;2.15;;;27.20;53.60;;;;;;4956251;28;20044;-76
2023/06/22 11:36:29;;;;;;;2.63;2.33;;;27.20;53.60;;;;;;4936840;29;20134;-76
2023/06/22 11:38:54;;;;;;;2.63;2.20;;;27.20;53.60;;;;;;4955678;29;20103;-76
2023/06/22 11:41:20;;;;;;;3.17;2.40;;;27.20;53.60;;;;;;4945250;28;20159;-76
2023/06/22 11:43:46;;;;;;;2.63;2.13;;;27.20;53.60;;;;;;4949534;29;20075;-75
2023/06/22 11:46:12;;;;;;;3.03;2.45;;;27.10;53.60;;;;;;4952799;29;20039;-75
2023/06/22 11:48:37;;;;;;;2.90;2.33;;;27.20;53.70;;;;;;4951280;28;20039;-75
2023/06/22 11:51:03;;;;;;;2.92;2.15;;;27.20;53.70;;;;;;4953040;29;20035;-75
2023/06/22 11:53:29;;;;;;;3.22;2.40;;;27.20;53.80;;;;;;4952871;28;20049;-76
2023/06/22 11:55:56;;;;;;;3.60;2.65;;;27.20;53.90;;;;;;4949906;29;20055;-75
2023/06/22 11:58:22;;;;;;;3.38;2.38;;;27.10;53.80;;;;;;4956457;28;20507;-75
2023/06/22 12:00:48;;;;;;;2.80;2.40;;;27.10;53.90;;;;;;4955970;28;20475;-75
2023/06/22 12:03:17;;;;;;;3.35;2.45;;;27.10;54.00;;;;;;4957080;28;20035;-75
2023/06/22 12:05:42;;;;;;;3.05;2.25;;;27.10;54.10;;;;;;4954202;28;20027;-75
2023/06/22 12:08:08;;;;;;;3.38;2.60;;;27.10;54.20;;;;;;4955498;28;20078;-75
2023/06/22 12:10:34;;;;;;;3.80;2.67;;;27.00;54.30;;;;;;4939298;28;20400;-75
2023/06/22 12:13:00;;;;;;;3.53;2.58;;;27.00;54.30;;;;;;4924277;29;20055;-75
2023/06/22 12:15:26;;;;;;;3.08;2.55;;;27.00;54.40;;;;;;4938954;28;20479;-75
2023/06/22 12:17:52;;;;;;;3.25;2.60;;;27.00;54.50;;;;;;4946943;29;20124;-75
2023/06/22 12:20:19;;;;;;;3.08;2.42;;;27.00;54.60;;;;;;4955512;28;20035;-75
2023/06/22 12:22:44;;;;;;;3.80;2.53;;;26.90;54.60;;;;;;4947272;28;20035;-75
2023/06/22 12:25:10;;;;;;;3.80;2.70;;;26.90;54.80;;;;;;4950385;29;20043;-75
2023/06/22 12:27:37;;;;;;;3.30;2.83;;;26.90;54.80;;;;;;4948567;28;20023;-75
2023/06/22 12:30:03;;;;;;;3.15;2.55;;;26.90;55.00;;;;;;4951625;28;20039;-75
2023/06/22 12:32:30;;;;;;;4.57;2.90;;;26.80;54.90;;;;;;4954297;28;20047;-75
2023/06/22 12:34:56;;;;;;;4.70;3.10;;;26.90;55.10;;;;;;4948789;29;20171;-75
2023/06/22 12:37:22;;;;;;;4.38;3.20;;;26.80;55.10;;;;;;4955367;28;20037;-75
2023/06/22 12:39:48;;;;;;;4.28;2.95;;;26.80;55.20;;;;;;4954110;28;20023;-74
2023/06/22 12:42:14;;;;;;;4.88;3.13;;;26.80;55.40;;;;;;4954723;28;20439;-75
2023/06/22 12:44:41;;;;;;;4.95;3.42;;;26.80;55.50;;;;;;4950778;28;20118;-74
2023/06/22 12:47:08;;;;;;;9.68;3.20;;;26.80;55.60;;;;;;4964668;28;20090;-74